Página principal
METAR-TAF:

METAR-TAF

Aeroportos :

Vientiane, Laos

Aeroporto Internacional de Wattay

latitude: 17-57N, longitude: 102-34E, altura: 171 m

Observação actual do tempo

O boletim foi feito há 37 minutos, às 11:30 UTC
Vento 4 kt de nor-nordeste
Temperatura 25°C
Humidade 79%
Pressão 1011 hPa
Visibilidade: 5000 m
neblina

METAR: VLVT 121130Z 02004KT 5000 BR NSC 25/21 Q1011 NOSIG

Hora: 19:07 (12:07 UTC)

Previsão

O boletim foi feito há 1 hora e 7 minutos, às 11:00 UTC
Previsão válida de 12 às 12 UTC a 13 às 12 UTC
Vento 6 kt de es-nordeste
Visibilidade: 7000 m
Poucas nuvensa uma altura de 2000 ft
Nuvens fragmentadasa uma altura de 5000 ft
Temporariamente
de 12 às 14 UTC a 12 às 20 UTC
Visibilidade: 4000 m
Nuvens fragmentadasa uma altura de 5000 ft
neblina

TAF: VLVT 121100Z 1212/1312 06006KT 7000 FEW020 BKN050 TEMPO 1214/1220 4000 BR BKN050

Observações e previsões do tempo de mais de 4000 aeroportos (mensagens METAR e TAF).

As estações disponíveis são os pontos amarelos e vermelhos sobre o mapa.

Mova o rato sobre o mapa para ver o nome da estação.

Depois clique no ponto para visualizar as observações e previsões meteorológicas.

Para alterar o mapa : clique nos botões verdes com uma cruz preta para aumentar o zoom; no botão verde com uma pitada de zoom; ou nas setas verdes para mapas adjacentes.


METAR-TAF: